sensor_id;sensor_type;location;lat;lon;timestamp;P1;durP1;ratioP1;P2;durP2;ratioP2
8714;SDS011;4394;51.208;8.904;2023-04-25T00:01:42;10.97;;;3.90;;
8714;SDS011;4394;51.208;8.904;2023-04-25T00:04:30;5.97;;;4.07;;
8714;SDS011;4394;51.208;8.904;2023-04-25T00:07:20;8.80;;;4.80;;
8714;SDS011;4394;51.208;8.904;2023-04-25T00:10:09;9.70;;;4.90;;
8714;SDS011;4394;51.208;8.904;2023-04-25T00:12:59;8.63;;;5.03;;
8714;SDS011;4394;51.208;8.904;2023-04-25T00:15:49;10.17;;;4.90;;
8714;SDS011;4394;51.208;8.904;2023-04-25T00:18:38;11.67;;;6.23;;
8714;SDS011;4394;51.208;8.904;2023-04-25T00:21:26;14.23;;;5.47;;
8714;SDS011;4394;51.208;8.904;2023-04-25T00:24:14;7.50;;;5.40;;
8714;SDS011;4394;51.208;8.904;2023-04-25T00:27:02;9.97;;;5.40;;
8714;SDS011;4394;51.208;8.904;2023-04-25T00:29:52;9.27;;;5.47;;
8714;SDS011;4394;51.208;8.904;2023-04-25T00:32:40;9.73;;;5.00;;
8714;SDS011;4394;51.208;8.904;2023-04-25T00:35:28;9.00;;;5.63;;
8714;SDS011;4394;51.208;8.904;2023-04-25T00:38:17;9.93;;;5.10;;
8714;SDS011;4394;51.208;8.904;2023-04-25T00:41:05;10.97;;;5.33;;
8714;SDS011;4394;51.208;8.904;2023-04-25T00:43:54;12.20;;;5.73;;
8714;SDS011;4394;51.208;8.904;2023-04-25T00:46:45;12.10;;;5.70;;
8714;SDS011;4394;51.208;8.904;2023-04-25T00:49:34;10.03;;;5.83;;
8714;SDS011;4394;51.208;8.904;2023-04-25T00:52:22;8.33;;;5.17;;
8714;SDS011;4394;51.208;8.904;2023-04-25T00:55:11;10.27;;;5.13;;
8714;SDS011;4394;51.208;8.904;2023-04-25T00:58:00;9.57;;;5.10;;
8714;SDS011;4394;51.208;8.904;2023-04-25T01:00:48;13.13;;;5.60;;
8714;SDS011;4394;51.208;8.904;2023-04-25T01:03:40;9.03;;;4.73;;
8714;SDS011;4394;51.208;8.904;2023-04-25T01:06:29;8.23;;;4.60;;
8714;SDS011;4394;51.208;8.904;2023-04-25T01:09:18;8.07;;;4.63;;
8714;SDS011;4394;51.208;8.904;2023-04-25T01:12:07;9.03;;;4.77;;
8714;SDS011;4394;51.208;8.904;2023-04-25T01:14:55;8.67;;;5.30;;
8714;SDS011;4394;51.208;8.904;2023-04-25T01:17:43;7.90;;;4.60;;
8714;SDS011;4394;51.208;8.904;2023-04-25T01:20:34;7.37;;;4.93;;
8714;SDS011;4394;51.208;8.904;2023-04-25T01:23:23;9.10;;;4.53;;
8714;SDS011;4394;51.208;8.904;2023-04-25T01:26:12;7.90;;;4.33;;
8714;SDS011;4394;51.208;8.904;2023-04-25T01:29:01;6.53;;;4.40;;
8714;SDS011;4394;51.208;8.904;2023-04-25T01:31:49;9.00;;;4.80;;
8714;SDS011;4394;51.208;8.904;2023-04-25T01:34:39;7.17;;;4.80;;
8714;SDS011;4394;51.208;8.904;2023-04-25T01:37:28;11.13;;;4.77;;
8714;SDS011;4394;51.208;8.904;2023-04-25T01:40:17;9.93;;;4.50;;
8714;SDS011;4394;51.208;8.904;2023-04-25T01:43:08;6.67;;;4.60;;
8714;SDS011;4394;51.208;8.904;2023-04-25T01:45:57;8.10;;;4.10;;
8714;SDS011;4394;51.208;8.904;2023-04-25T01:48:46;8.10;;;4.77;;
8714;SDS011;4394;51.208;8.904;2023-04-25T01:51:34;11.53;;;4.33;;
8714;SDS011;4394;51.208;8.904;2023-04-25T01:54:22;8.90;;;4.67;;
8714;SDS011;4394;51.208;8.904;2023-04-25T01:57:12;7.57;;;4.60;;
8714;SDS011;4394;51.208;8.904;2023-04-25T02:00:02;7.33;;;5.03;;
8714;SDS011;4394;51.208;8.904;2023-04-25T02:02:52;7.37;;;4.20;;
8714;SDS011;4394;51.208;8.904;2023-04-25T02:05:40;7.43;;;3.73;;
8714;SDS011;4394;51.208;8.904;2023-04-25T02:08:28;5.17;;;3.70;;
8714;SDS011;4394;51.208;8.904;2023-04-25T02:11:17;11.70;;;4.60;;
8714;SDS011;4394;51.208;8.904;2023-04-25T02:14:07;8.07;;;4.23;;
8714;SDS011;4394;51.208;8.904;2023-04-25T02:16:55;6.40;;;4.10;;
8714;SDS011;4394;51.208;8.904;2023-04-25T02:19:43;9.20;;;5.27;;
8714;SDS011;4394;51.208;8.904;2023-04-25T02:22:32;9.67;;;4.60;;
8714;SDS011;4394;51.208;8.904;2023-04-25T02:25:20;8.17;;;3.90;;
8714;SDS011;4394;51.208;8.904;2023-04-25T02:28:08;9.70;;;4.13;;
8714;SDS011;4394;51.208;8.904;2023-04-25T02:30:59;8.77;;;4.47;;
8714;SDS011;4394;51.208;8.904;2023-04-25T02:33:47;12.87;;;4.40;;
8714;SDS011;4394;51.208;8.904;2023-04-25T02:36:36;9.47;;;4.40;;
8714;SDS011;4394;51.208;8.904;2023-04-25T02:39:24;6.70;;;4.10;;
8714;SDS011;4394;51.208;8.904;2023-04-25T02:42:13;8.57;;;4.03;;
8714;SDS011;4394;51.208;8.904;2023-04-25T02:45:01;8.03;;;5.00;;
8714;SDS011;4394;51.208;8.904;2023-04-25T02:47:52;6.50;;;3.97;;
8714;SDS011;4394;51.208;8.904;2023-04-25T02:50:40;6.83;;;4.27;;
8714;SDS011;4394;51.208;8.904;2023-04-25T02:53:28;7.93;;;4.40;;
8714;SDS011;4394;51.208;8.904;2023-04-25T02:56:17;7.20;;;3.80;;
8714;SDS011;4394;51.208;8.904;2023-04-25T02:59:05;6.53;;;4.27;;
8714;SDS011;4394;51.208;8.904;2023-04-25T03:01:53;6.80;;;4.47;;
8714;SDS011;4394;51.208;8.904;2023-04-25T03:04:43;10.07;;;4.70;;
8714;SDS011;4394;51.208;8.904;2023-04-25T03:07:31;5.83;;;4.13;;
8714;SDS011;4394;51.208;8.904;2023-04-25T03:10:20;8.23;;;4.60;;
8714;SDS011;4394;51.208;8.904;2023-04-25T03:13:08;9.93;;;4.57;;
8714;SDS011;4394;51.208;8.904;2023-04-25T03:15:56;5.57;;;4.60;;
8714;SDS011;4394;51.208;8.904;2023-04-25T03:18:44;7.97;;;4.73;;
8714;SDS011;4394;51.208;8.904;2023-04-25T03:21:34;7.10;;;4.40;;
8714;SDS011;4394;51.208;8.904;2023-04-25T03:24:23;8.50;;;4.63;;
8714;SDS011;4394;51.208;8.904;2023-04-25T03:27:11;5.93;;;4.87;;
8714;SDS011;4394;51.208;8.904;2023-04-25T03:29:59;9.10;;;4.63;;
8714;SDS011;4394;51.208;8.904;2023-04-25T03:32:47;11.53;;;5.97;;
8714;SDS011;4394;51.208;8.904;2023-04-25T03:35:36;8.13;;;5.00;;
8714;SDS011;4394;51.208;8.904;2023-04-25T03:38:25;11.60;;;5.77;;
8714;SDS011;4394;51.208;8.904;2023-04-25T03:41:14;11.13;;;6.00;;
8714;SDS011;4394;51.208;8.904;2023-04-25T03:44:02;6.83;;;5.27;;
8714;SDS011;4394;51.208;8.904;2023-04-25T03:46:50;5.53;;;4.70;;
8714;SDS011;4394;51.208;8.904;2023-04-25T03:49:38;9.33;;;5.17;;
8714;SDS011;4394;51.208;8.904;2023-04-25T03:52:26;7.57;;;4.90;;
8714;SDS011;4394;51.208;8.904;2023-04-25T03:55:16;7.70;;;4.97;;
8714;SDS011;4394;51.208;8.904;2023-04-25T03:58:05;10.40;;;5.00;;
8714;SDS011;4394;51.208;8.904;2023-04-25T04:00:54;7.07;;;4.77;;
8714;SDS011;4394;51.208;8.904;2023-04-25T04:03:42;6.97;;;5.57;;
8714;SDS011;4394;51.208;8.904;2023-04-25T04:06:31;8.77;;;5.47;;
8714;SDS011;4394;51.208;8.904;2023-04-25T04:09:20;6.83;;;4.97;;
8714;SDS011;4394;51.208;8.904;2023-04-25T04:12:10;9.10;;;5.23;;
8714;SDS011;4394;51.208;8.904;2023-04-25T04:14:58;9.87;;;5.30;;
8714;SDS011;4394;51.208;8.904;2023-04-25T04:17:47;9.13;;;5.20;;
8714;SDS011;4394;51.208;8.904;2023-04-25T04:20:36;8.10;;;5.20;;
8714;SDS011;4394;51.208;8.904;2023-04-25T04:23:24;8.73;;;4.80;;
8714;SDS011;4394;51.208;8.904;2023-04-25T04:26:14;6.20;;;4.70;;
8714;SDS011;4394;51.208;8.904;2023-04-25T04:29:04;6.50;;;4.73;;
8714;SDS011;4394;51.208;8.904;2023-04-25T04:31:53;7.07;;;4.87;;
8714;SDS011;4394;51.208;8.904;2023-04-25T04:34:42;5.27;;;4.10;;
8714;SDS011;4394;51.208;8.904;2023-04-25T04:37:30;7.10;;;4.50;;
8714;SDS011;4394;51.208;8.904;2023-04-25T04:40:20;6.23;;;4.23;;
8714;SDS011;4394;51.208;8.904;2023-04-25T04:43:09;7.03;;;4.50;;
8714;SDS011;4394;51.208;8.904;2023-04-25T04:45:58;5.53;;;3.80;;
8714;SDS011;4394;51.208;8.904;2023-04-25T04:48:49;4.63;;;3.60;;
8714;SDS011;4394;51.208;8.904;2023-04-25T04:51:39;4.53;;;3.20;;
8714;SDS011;4394;51.208;8.904;2023-04-25T04:54:30;4.03;;;3.37;;
8714;SDS011;4394;51.208;8.904;2023-04-25T04:57:19;4.13;;;3.27;;
8714;SDS011;4394;51.208;8.904;2023-04-25T05:00:07;4.10;;;3.37;;
8714;SDS011;4394;51.208;8.904;2023-04-25T05:02:58;4.47;;;3.00;;
8714;SDS011;4394;51.208;8.904;2023-04-25T05:05:46;4.00;;;3.10;;
8714;SDS011;4394;51.208;8.904;2023-04-25T05:08:35;3.97;;;3.00;;
8714;SDS011;4394;51.208;8.904;2023-04-25T05:11:23;4.33;;;3.07;;
8714;SDS011;4394;51.208;8.904;2023-04-25T05:14:12;5.47;;;3.23;;
8714;SDS011;4394;51.208;8.904;2023-04-25T05:17:00;4.03;;;3.10;;
8714;SDS011;4394;51.208;8.904;2023-04-25T05:19:52;3.10;;;2.80;;
8714;SDS011;4394;51.208;8.904;2023-04-25T05:22:41;3.60;;;2.70;;
8714;SDS011;4394;51.208;8.904;2023-04-25T05:25:29;4.40;;;3.10;;
8714;SDS011;4394;51.208;8.904;2023-04-25T05:28:17;4.53;;;2.90;;
8714;SDS011;4394;51.208;8.904;2023-04-25T05:31:07;3.00;;;2.50;;
8714;SDS011;4394;51.208;8.904;2023-04-25T05:33:56;4.73;;;2.70;;
8714;SDS011;4394;51.208;8.904;2023-04-25T05:36:46;3.93;;;2.80;;
8714;SDS011;4394;51.208;8.904;2023-04-25T05:39:35;3.10;;;2.40;;
8714;SDS011;4394;51.208;8.904;2023-04-25T05:42:23;3.53;;;1.67;;
8714;SDS011;4394;51.208;8.904;2023-04-25T05:45:11;2.33;;;1.90;;
8714;SDS011;4394;51.208;8.904;2023-04-25T05:48:00;2.40;;;1.77;;
8714;SDS011;4394;51.208;8.904;2023-04-25T05:50:49;1.97;;;1.63;;
8714;SDS011;4394;51.208;8.904;2023-04-25T05:53:39;2.77;;;2.10;;
8714;SDS011;4394;51.208;8.904;2023-04-25T05:56:27;4.67;;;2.80;;
8714;SDS011;4394;51.208;8.904;2023-04-25T05:59:15;3.23;;;2.03;;
8714;SDS011;4394;51.208;8.904;2023-04-25T06:02:03;3.13;;;2.30;;
8714;SDS011;4394;51.208;8.904;2023-04-25T06:04:53;5.23;;;2.60;;
8714;SDS011;4394;51.208;8.904;2023-04-25T06:07:42;5.40;;;2.70;;
8714;SDS011;4394;51.208;8.904;2023-04-25T06:10:32;4.57;;;2.33;;
8714;SDS011;4394;51.208;8.904;2023-04-25T06:13:21;5.27;;;3.00;;
8714;SDS011;4394;51.208;8.904;2023-04-25T06:16:09;5.80;;;3.10;;
8714;SDS011;4394;51.208;8.904;2023-04-25T06:18:57;4.27;;;3.00;;
8714;SDS011;4394;51.208;8.904;2023-04-25T06:21:45;6.83;;;3.00;;
8714;SDS011;4394;51.208;8.904;2023-04-25T06:24:33;7.03;;;3.50;;
8714;SDS011;4394;51.208;8.904;2023-04-25T06:27:23;8.33;;;3.70;;
8714;SDS011;4394;51.208;8.904;2023-04-25T06:30:11;6.20;;;3.30;;
8714;SDS011;4394;51.208;8.904;2023-04-25T06:33:00;7.83;;;3.57;;
8714;SDS011;4394;51.208;8.904;2023-04-25T06:35:48;9.17;;;3.90;;
8714;SDS011;4394;51.208;8.904;2023-04-25T06:38:37;5.50;;;3.40;;
8714;SDS011;4394;51.208;8.904;2023-04-25T06:41:25;8.33;;;4.10;;
8714;SDS011;4394;51.208;8.904;2023-04-25T06:44:15;7.03;;;3.93;;
8714;SDS011;4394;51.208;8.904;2023-04-25T06:47:03;10.57;;;4.00;;
8714;SDS011;4394;51.208;8.904;2023-04-25T06:49:51;15.33;;;4.60;;
8714;SDS011;4394;51.208;8.904;2023-04-25T06:52:40;9.00;;;4.43;;
8714;SDS011;4394;51.208;8.904;2023-04-25T06:55:28;10.33;;;4.20;;
8714;SDS011;4394;51.208;8.904;2023-04-25T06:58:16;9.37;;;4.30;;
8714;SDS011;4394;51.208;8.904;2023-04-25T07:01:06;10.83;;;4.47;;
8714;SDS011;4394;51.208;8.904;2023-04-25T07:03:54;8.90;;;3.87;;
8714;SDS011;4394;51.208;8.904;2023-04-25T07:06:43;12.43;;;4.03;;
8714;SDS011;4394;51.208;8.904;2023-04-25T07:09:32;12.40;;;4.07;;
8714;SDS011;4394;51.208;8.904;2023-04-25T07:12:20;13.17;;;4.33;;
8714;SDS011;4394;51.208;8.904;2023-04-25T07:15:08;13.50;;;3.83;;
8714;SDS011;4394;51.208;8.904;2023-04-25T07:17:59;13.00;;;3.57;;
8714;SDS011;4394;51.208;8.904;2023-04-25T07:20:47;11.13;;;3.67;;
8714;SDS011;4394;51.208;8.904;2023-04-25T07:23:35;8.90;;;3.70;;
8714;SDS011;4394;51.208;8.904;2023-04-25T07:26:23;11.33;;;4.07;;
8714;SDS011;4394;51.208;8.904;2023-04-25T07:29:12;9.50;;;3.13;;
8714;SDS011;4394;51.208;8.904;2023-04-25T07:32:01;8.60;;;3.83;;
8714;SDS011;4394;51.208;8.904;2023-04-25T07:34:50;7.97;;;2.93;;
8714;SDS011;4394;51.208;8.904;2023-04-25T07:37:39;9.67;;;3.80;;
8714;SDS011;4394;51.208;8.904;2023-04-25T07:40:27;10.80;;;3.93;;
8714;SDS011;4394;51.208;8.904;2023-04-25T07:43:15;11.83;;;4.07;;
8714;SDS011;4394;51.208;8.904;2023-04-25T07:46:03;10.40;;;3.90;;
8714;SDS011;4394;51.208;8.904;2023-04-25T07:48:52;10.87;;;3.60;;
8714;SDS011;4394;51.208;8.904;2023-04-25T07:51:42;9.07;;;3.23;;
8714;SDS011;4394;51.208;8.904;2023-04-25T07:54:30;7.80;;;3.17;;
8714;SDS011;4394;51.208;8.904;2023-04-25T07:57:19;13.20;;;3.67;;
8714;SDS011;4394;51.208;8.904;2023-04-25T08:00:07;11.33;;;3.27;;
8714;SDS011;4394;51.208;8.904;2023-04-25T08:02:57;8.47;;;3.30;;
8714;SDS011;4394;51.208;8.904;2023-04-25T08:05:46;12.17;;;3.53;;
8714;SDS011;4394;51.208;8.904;2023-04-25T08:08:36;8.83;;;3.47;;
8714;SDS011;4394;51.208;8.904;2023-04-25T08:11:24;9.97;;;3.40;;
8714;SDS011;4394;51.208;8.904;2023-04-25T08:14:12;7.73;;;4.23;;
8714;SDS011;4394;51.208;8.904;2023-04-25T08:17:01;9.70;;;4.93;;
8714;SDS011;4394;51.208;8.904;2023-04-25T08:19:49;10.27;;;3.30;;
8714;SDS011;4394;51.208;8.904;2023-04-25T08:22:37;9.10;;;3.43;;
8714;SDS011;4394;51.208;8.904;2023-04-25T08:25:27;10.20;;;2.97;;
8714;SDS011;4394;51.208;8.904;2023-04-25T08:28:15;8.97;;;3.00;;
8714;SDS011;4394;51.208;8.904;2023-04-25T08:31:04;10.00;;;4.10;;
8714;SDS011;4394;51.208;8.904;2023-04-25T08:33:52;12.53;;;5.13;;
8714;SDS011;4394;51.208;8.904;2023-04-25T08:36:40;16.73;;;5.43;;
8714;SDS011;4394;51.208;8.904;2023-04-25T08:39:28;13.00;;;4.80;;
8714;SDS011;4394;51.208;8.904;2023-04-25T08:42:18;9.43;;;3.40;;
8714;SDS011;4394;51.208;8.904;2023-04-25T08:45:09;6.47;;;3.70;;
8714;SDS011;4394;51.208;8.904;2023-04-25T08:47:58;10.53;;;2.93;;
8714;SDS011;4394;51.208;8.904;2023-04-25T08:50:49;9.27;;;2.93;;
8714;SDS011;4394;51.208;8.904;2023-04-25T08:53:39;8.13;;;3.33;;
8714;SDS011;4394;51.208;8.904;2023-04-25T08:56:29;10.97;;;3.10;;
8714;SDS011;4394;51.208;8.904;2023-04-25T08:59:22;8.60;;;3.20;;
8714;SDS011;4394;51.208;8.904;2023-04-25T09:02:11;12.20;;;2.80;;
8714;SDS011;4394;51.208;8.904;2023-04-25T09:05:02;8.27;;;2.80;;
8714;SDS011;4394;51.208;8.904;2023-04-25T09:07:51;12.23;;;3.13;;
8714;SDS011;4394;51.208;8.904;2023-04-25T09:10:40;9.03;;;2.97;;
8714;SDS011;4394;51.208;8.904;2023-04-25T09:13:28;10.20;;;3.37;;
8714;SDS011;4394;51.208;8.904;2023-04-25T09:16:18;6.80;;;2.50;;
8714;SDS011;4394;51.208;8.904;2023-04-25T09:19:10;7.77;;;3.13;;
8714;SDS011;4394;51.208;8.904;2023-04-25T09:22:24;7.63;;;2.83;;
8714;SDS011;4394;51.208;8.904;2023-04-25T09:25:12;12.80;;;3.37;;
8714;SDS011;4394;51.208;8.904;2023-04-25T09:28:03;6.90;;;3.10;;
8714;SDS011;4394;51.208;8.904;2023-04-25T09:30:54;6.23;;;2.27;;
8714;SDS011;4394;51.208;8.904;2023-04-25T09:33:45;4.90;;;2.40;;
8714;SDS011;4394;51.208;8.904;2023-04-25T09:36:34;7.33;;;2.37;;
8714;SDS011;4394;51.208;8.904;2023-04-25T09:39:22;4.57;;;2.33;;
8714;SDS011;4394;51.208;8.904;2023-04-25T09:42:12;7.27;;;2.20;;
8714;SDS011;4394;51.208;8.904;2023-04-25T09:45:01;4.23;;;2.00;;
8714;SDS011;4394;51.208;8.904;2023-04-25T09:47:51;7.43;;;2.20;;
8714;SDS011;4394;51.208;8.904;2023-04-25T09:50:45;7.13;;;2.40;;
8714;SDS011;4394;51.208;8.904;2023-04-25T09:53:50;6.40;;;2.07;;
8714;SDS011;4394;51.208;8.904;2023-04-25T09:56:39;6.63;;;2.37;;
8714;SDS011;4394;51.208;8.904;2023-04-25T09:59:28;8.30;;;2.10;;
8714;SDS011;4394;51.208;8.904;2023-04-25T10:02:20;6.67;;;2.17;;
8714;SDS011;4394;51.208;8.904;2023-04-25T10:05:10;5.70;;;2.10;;
8714;SDS011;4394;51.208;8.904;2023-04-25T10:08:01;6.43;;;2.30;;
8714;SDS011;4394;51.208;8.904;2023-04-25T10:10:51;4.90;;;2.00;;
8714;SDS011;4394;51.208;8.904;2023-04-25T10:13:39;5.77;;;1.90;;
8714;SDS011;4394;51.208;8.904;2023-04-25T10:16:27;4.07;;;2.20;;
8714;SDS011;4394;51.208;8.904;2023-04-25T10:19:16;4.37;;;2.03;;
8714;SDS011;4394;51.208;8.904;2023-04-25T10:22:07;5.97;;;2.17;;
8714;SDS011;4394;51.208;8.904;2023-04-25T10:25:01;5.23;;;2.10;;
8714;SDS011;4394;51.208;8.904;2023-04-25T10:27:51;6.33;;;2.17;;
8714;SDS011;4394;51.208;8.904;2023-04-25T10:33:46;4.13;;;2.10;;
8714;SDS011;4394;51.208;8.904;2023-04-25T10:36:37;4.53;;;2.33;;
8714;SDS011;4394;51.208;8.904;2023-04-25T10:39:26;7.40;;;2.60;;
8714;SDS011;4394;51.208;8.904;2023-04-25T10:42:16;5.47;;;2.27;;
8714;SDS011;4394;51.208;8.904;2023-04-25T10:45:05;6.40;;;2.13;;
8714;SDS011;4394;51.208;8.904;2023-04-25T10:47:54;8.13;;;2.40;;
8714;SDS011;4394;51.208;8.904;2023-04-25T10:50:43;4.63;;;2.20;;
8714;SDS011;4394;51.208;8.904;2023-04-25T10:53:33;3.70;;;1.90;;
8714;SDS011;4394;51.208;8.904;2023-04-25T10:56:22;9.20;;;2.47;;
8714;SDS011;4394;51.208;8.904;2023-04-25T10:59:14;4.00;;;1.80;;
8714;SDS011;4394;51.208;8.904;2023-04-25T11:02:09;3.90;;;1.50;;
8714;SDS011;4394;51.208;8.904;2023-04-25T11:05:00;4.50;;;1.60;;
8714;SDS011;4394;51.208;8.904;2023-04-25T11:07:50;5.10;;;1.40;;
8714;SDS011;4394;51.208;8.904;2023-04-25T11:10:52;5.27;;;1.40;;
8714;SDS011;4394;51.208;8.904;2023-04-25T11:13:42;3.87;;;1.20;;
8714;SDS011;4394;51.208;8.904;2023-04-25T11:16:31;6.20;;;1.47;;
8714;SDS011;4394;51.208;8.904;2023-04-25T11:19:20;4.30;;;1.47;;
8714;SDS011;4394;51.208;8.904;2023-04-25T11:22:09;3.13;;;1.50;;
8714;SDS011;4394;51.208;8.904;2023-04-25T11:24:58;2.80;;;1.23;;
8714;SDS011;4394;51.208;8.904;2023-04-25T11:27:52;2.57;;;1.13;;
8714;SDS011;4394;51.208;8.904;2023-04-25T11:30:47;4.93;;;1.43;;
8714;SDS011;4394;51.208;8.904;2023-04-25T11:33:37;3.73;;;1.50;;
8714;SDS011;4394;51.208;8.904;2023-04-25T11:36:27;4.30;;;1.73;;
8714;SDS011;4394;51.208;8.904;2023-04-25T11:39:17;2.70;;;1.03;;
8714;SDS011;4394;51.208;8.904;2023-04-25T11:42:06;2.50;;;1.40;;
8714;SDS011;4394;51.208;8.904;2023-04-25T11:44:59;3.20;;;1.20;;
8714;SDS011;4394;51.208;8.904;2023-04-25T11:47:48;2.17;;;1.47;;
8714;SDS011;4394;51.208;8.904;2023-04-25T11:50:39;4.10;;;2.17;;
8714;SDS011;4394;51.208;8.904;2023-04-25T11:53:28;3.30;;;1.87;;
8714;SDS011;4394;51.208;8.904;2023-04-25T11:56:16;4.80;;;1.67;;
8714;SDS011;4394;51.208;8.904;2023-04-25T11:59:05;6.50;;;2.10;;
8714;SDS011;4394;51.208;8.904;2023-04-25T12:01:54;5.63;;;1.50;;
8714;SDS011;4394;51.208;8.904;2023-04-25T12:04:44;8.67;;;1.70;;
8714;SDS011;4394;51.208;8.904;2023-04-25T12:07:35;4.73;;;1.93;;
8714;SDS011;4394;51.208;8.904;2023-04-25T12:10:25;4.00;;;1.80;;
8714;SDS011;4394;51.208;8.904;2023-04-25T12:13:20;2.60;;;1.37;;
8714;SDS011;4394;51.208;8.904;2023-04-25T12:16:10;2.77;;;1.23;;
8714;SDS011;4394;51.208;8.904;2023-04-25T12:18:58;4.03;;;1.60;;
8714;SDS011;4394;51.208;8.904;2023-04-25T12:21:47;3.30;;;1.50;;
8714;SDS011;4394;51.208;8.904;2023-04-25T12:24:47;5.33;;;2.23;;
8714;SDS011;4394;51.208;8.904;2023-04-25T12:27:36;3.37;;;1.60;;
8714;SDS011;4394;51.208;8.904;2023-04-25T12:30:24;4.60;;;1.63;;
8714;SDS011;4394;51.208;8.904;2023-04-25T12:33:12;2.83;;;1.53;;
8714;SDS011;4394;51.208;8.904;2023-04-25T12:36:01;3.43;;;1.70;;
8714;SDS011;4394;51.208;8.904;2023-04-25T12:38:54;5.53;;;1.60;;
8714;SDS011;4394;51.208;8.904;2023-04-25T12:41:44;3.87;;;2.00;;
8714;SDS011;4394;51.208;8.904;2023-04-25T12:44:33;4.27;;;2.13;;
8714;SDS011;4394;51.208;8.904;2023-04-25T12:47:22;6.47;;;1.90;;
8714;SDS011;4394;51.208;8.904;2023-04-25T12:50:10;7.50;;;2.13;;
8714;SDS011;4394;51.208;8.904;2023-04-25T12:52:58;4.10;;;1.80;;
8714;SDS011;4394;51.208;8.904;2023-04-25T12:55:47;4.70;;;1.90;;
8714;SDS011;4394;51.208;8.904;2023-04-25T12:58:37;4.73;;;1.90;;
8714;SDS011;4394;51.208;8.904;2023-04-25T13:01:26;5.60;;;1.60;;
8714;SDS011;4394;51.208;8.904;2023-04-25T13:04:14;2.47;;;1.67;;
8714;SDS011;4394;51.208;8.904;2023-04-25T13:07:03;3.40;;;1.90;;
8714;SDS011;4394;51.208;8.904;2023-04-25T13:09:51;5.40;;;1.83;;
8714;SDS011;4394;51.208;8.904;2023-04-25T13:12:40;5.70;;;1.87;;
8714;SDS011;4394;51.208;8.904;2023-04-25T13:15:29;4.10;;;1.53;;
8714;SDS011;4394;51.208;8.904;2023-04-25T13:18:18;4.60;;;1.70;;
8714;SDS011;4394;51.208;8.904;2023-04-25T13:21:07;3.90;;;1.67;;
8714;SDS011;4394;51.208;8.904;2023-04-25T13:23:57;2.47;;;1.50;;
8714;SDS011;4394;51.208;8.904;2023-04-25T13:26:45;3.40;;;1.43;;
8714;SDS011;4394;51.208;8.904;2023-04-25T13:29:34;5.33;;;1.77;;
8714;SDS011;4394;51.208;8.904;2023-04-25T13:32:26;5.93;;;1.73;;
8714;SDS011;4394;51.208;8.904;2023-04-25T13:35:14;3.33;;;1.50;;
8714;SDS011;4394;51.208;8.904;2023-04-25T13:38:04;5.87;;;2.10;;
8714;SDS011;4394;51.208;8.904;2023-04-25T13:40:53;4.33;;;2.10;;
8714;SDS011;4394;51.208;8.904;2023-04-25T13:43:41;3.17;;;1.87;;
8714;SDS011;4394;51.208;8.904;2023-04-25T13:46:30;3.83;;;2.00;;
8714;SDS011;4394;51.208;8.904;2023-04-25T13:49:34;2.00;;;1.50;;
8714;SDS011;4394;51.208;8.904;2023-04-25T13:52:22;6.37;;;2.20;;
8714;SDS011;4394;51.208;8.904;2023-04-25T13:55:12;6.67;;;2.30;;
8714;SDS011;4394;51.208;8.904;2023-04-25T13:58:00;3.37;;;2.40;;
8714;SDS011;4394;51.208;8.904;2023-04-25T14:00:53;4.73;;;1.90;;
8714;SDS011;4394;51.208;8.904;2023-04-25T14:03:41;5.43;;;2.43;;
8714;SDS011;4394;51.208;8.904;2023-04-25T14:06:32;3.17;;;2.00;;
8714;SDS011;4394;51.208;8.904;2023-04-25T14:09:22;4.83;;;2.00;;
8714;SDS011;4394;51.208;8.904;2023-04-25T14:12:11;4.73;;;2.10;;
8714;SDS011;4394;51.208;8.904;2023-04-25T14:15:00;6.07;;;2.50;;
8714;SDS011;4394;51.208;8.904;2023-04-25T14:17:49;2.03;;;1.67;;
8714;SDS011;4394;51.208;8.904;2023-04-25T14:20:37;3.50;;;1.87;;
8714;SDS011;4394;51.208;8.904;2023-04-25T14:23:26;3.40;;;1.60;;
8714;SDS011;4394;51.208;8.904;2023-04-25T14:26:14;4.13;;;1.50;;
8714;SDS011;4394;51.208;8.904;2023-04-25T14:29:03;2.73;;;1.50;;
8714;SDS011;4394;51.208;8.904;2023-04-25T14:31:52;3.83;;;1.87;;
8714;SDS011;4394;51.208;8.904;2023-04-25T14:34:40;3.87;;;2.17;;
8714;SDS011;4394;51.208;8.904;2023-04-25T14:37:28;4.13;;;1.63;;
8714;SDS011;4394;51.208;8.904;2023-04-25T14:40:18;3.03;;;1.67;;
8714;SDS011;4394;51.208;8.904;2023-04-25T14:43:09;3.30;;;1.30;;
8714;SDS011;4394;51.208;8.904;2023-04-25T14:45:57;1.70;;;1.33;;
8714;SDS011;4394;51.208;8.904;2023-04-25T14:48:46;3.13;;;1.40;;
8714;SDS011;4394;51.208;8.904;2023-04-25T14:51:34;4.80;;;1.60;;
8714;SDS011;4394;51.208;8.904;2023-04-25T14:54:22;3.60;;;1.30;;
8714;SDS011;4394;51.208;8.904;2023-04-25T14:57:12;2.33;;;1.40;;
8714;SDS011;4394;51.208;8.904;2023-04-25T15:00:01;1.70;;;1.00;;
8714;SDS011;4394;51.208;8.904;2023-04-25T15:02:51;5.30;;;1.27;;
8714;SDS011;4394;51.208;8.904;2023-04-25T15:05:40;2.27;;;0.90;;
8714;SDS011;4394;51.208;8.904;2023-04-25T15:08:29;2.20;;;1.23;;
8714;SDS011;4394;51.208;8.904;2023-04-25T15:11:18;2.40;;;1.10;;
8714;SDS011;4394;51.208;8.904;2023-04-25T15:14:09;3.53;;;1.40;;
8714;SDS011;4394;51.208;8.904;2023-04-25T15:16:57;3.37;;;1.73;;
8714;SDS011;4394;51.208;8.904;2023-04-25T15:19:46;4.80;;;1.60;;
8714;SDS011;4394;51.208;8.904;2023-04-25T15:22:34;5.57;;;1.83;;
8714;SDS011;4394;51.208;8.904;2023-04-25T15:25:22;5.07;;;1.90;;
8714;SDS011;4394;51.208;8.904;2023-04-25T15:28:11;3.77;;;1.80;;
8714;SDS011;4394;51.208;8.904;2023-04-25T15:31:02;5.90;;;1.90;;
8714;SDS011;4394;51.208;8.904;2023-04-25T15:33:50;4.60;;;1.83;;
8714;SDS011;4394;51.208;8.904;2023-04-25T15:36:38;4.53;;;1.73;;
8714;SDS011;4394;51.208;8.904;2023-04-25T15:39:26;4.73;;;1.50;;
8714;SDS011;4394;51.208;8.904;2023-04-25T15:42:14;4.17;;;1.37;;
8714;SDS011;4394;51.208;8.904;2023-04-25T15:45:03;3.97;;;1.57;;
8714;SDS011;4394;51.208;8.904;2023-04-25T15:47:55;1.77;;;1.17;;
8714;SDS011;4394;51.208;8.904;2023-04-25T15:50:43;4.40;;;1.37;;
8714;SDS011;4394;51.208;8.904;2023-04-25T15:53:32;2.00;;;1.20;;
8714;SDS011;4394;51.208;8.904;2023-04-25T15:56:21;2.37;;;1.13;;
8714;SDS011;4394;51.208;8.904;2023-04-25T15:59:09;1.53;;;0.93;;
8714;SDS011;4394;51.208;8.904;2023-04-25T16:01:58;3.60;;;1.10;;
8714;SDS011;4394;51.208;8.904;2023-04-25T16:04:47;1.83;;;1.00;;
8714;SDS011;4394;51.208;8.904;2023-04-25T16:07:36;1.83;;;1.00;;
8714;SDS011;4394;51.208;8.904;2023-04-25T16:10:25;3.23;;;1.30;;
8714;SDS011;4394;51.208;8.904;2023-04-25T16:13:13;1.60;;;0.90;;
8714;SDS011;4394;51.208;8.904;2023-04-25T16:16:01;2.10;;;1.10;;
8714;SDS011;4394;51.208;8.904;2023-04-25T16:18:50;3.03;;;0.90;;
8714;SDS011;4394;51.208;8.904;2023-04-25T16:21:40;1.60;;;1.27;;
8714;SDS011;4394;51.208;8.904;2023-04-25T16:24:28;3.73;;;1.33;;
8714;SDS011;4394;51.208;8.904;2023-04-25T16:27:17;6.33;;;1.43;;
8714;SDS011;4394;51.208;8.904;2023-04-25T16:30:06;3.37;;;1.30;;
8714;SDS011;4394;51.208;8.904;2023-04-25T16:32:56;3.43;;;1.60;;
8714;SDS011;4394;51.208;8.904;2023-04-25T16:35:44;3.30;;;1.23;;
8714;SDS011;4394;51.208;8.904;2023-04-25T16:38:34;2.93;;;1.40;;
8714;SDS011;4394;51.208;8.904;2023-04-25T16:41:25;4.33;;;1.50;;
8714;SDS011;4394;51.208;8.904;2023-04-25T16:44:13;3.33;;;1.20;;
8714;SDS011;4394;51.208;8.904;2023-04-25T16:47:02;4.20;;;1.13;;
8714;SDS011;4394;51.208;8.904;2023-04-25T16:49:51;3.80;;;1.70;;
8714;SDS011;4394;51.208;8.904;2023-04-25T16:52:40;2.10;;;1.20;;
8714;SDS011;4394;51.208;8.904;2023-04-25T16:55:31;2.83;;;1.47;;
8714;SDS011;4394;51.208;8.904;2023-04-25T16:58:19;3.55;;;1.80;;
8714;SDS011;4394;51.208;8.904;2023-04-25T17:01:09;2.70;;;1.70;;
8714;SDS011;4394;51.208;8.904;2023-04-25T17:04:01;2.37;;;1.90;;
8714;SDS011;4394;51.208;8.904;2023-04-25T17:06:50;5.37;;;1.93;;
8714;SDS011;4394;51.208;8.904;2023-04-25T17:09:38;3.83;;;1.80;;
8714;SDS011;4394;51.208;8.904;2023-04-25T17:12:27;5.37;;;1.77;;
8714;SDS011;4394;51.208;8.904;2023-04-25T17:15:16;4.50;;;1.83;;
8714;SDS011;4394;51.208;8.904;2023-04-25T17:18:04;3.30;;;1.97;;
8714;SDS011;4394;51.208;8.904;2023-04-25T17:20:53;3.93;;;1.93;;
8714;SDS011;4394;51.208;8.904;2023-04-25T17:23:41;3.37;;;1.90;;
8714;SDS011;4394;51.208;8.904;2023-04-25T17:26:31;1.87;;;1.60;;
8714;SDS011;4394;51.208;8.904;2023-04-25T17:29:21;2.67;;;1.33;;
8714;SDS011;4394;51.208;8.904;2023-04-25T17:32:10;2.73;;;1.90;;